Amelia Village, Florida
Current Conditions -  °F | °C
As of 8:15 PM on Monday 22 Dec 2014 (Local Time) from KFHB Reporting Station
Thunderstorm Thunderstorm  
Wind Chill: 68°   Ceiling: 2500
Heat Index: 68°   Visibility: 3mi
Dew Point: 66°   Wind: 5mph
Humidity: 94%   Direction: 100°E
Pressure: 29.92"   Gusts: NA
Location:  30.6697°N, 81.4629°W
Report Text: KFHB 230115Z AUTO 10004KT 3SM VCTS SCT002 BKN025 OVC031 20/19 A2992 RMK AO1 LTG DSNT ALQS
Loading
Personal Weather Stations






























Interactive Weather Map New forecast layout! Learn more

10-Day Weather Forecast

Advertisements
Track Severe Weather on mobile